Highland Park, IL (60035)

9:37 AM CST on December 21, 2014 (GMT -0600)
Sunset Park | Change Station
CLOSE
Current Station
Personal Weather Station
Location: Highland Park, IL
Elevation: 663 ft
Nearby Weather Stations

Elev 663 ft 42.19 °N, 87.81 °W | Updated 13 seconds ago

Overcast
Overcast
34.0 °F
Feels Like 34 °F
N
0.0
Wind Variable Wind from South
Gusts 0.0 mph

Today
High -- | Low -- °F
--% Chance of Precip.
Yesterday
High -- | Low -- °F
Precip. -- in
7:16 AM 4:22 PM
Waning Crescent, 0% visible
Pressure 30.23 in
Visibility 6.0 miles
Clouds Overcast 3800 ft
Windchill 34 °F
Dew Point 25 °F
Humidity 69%
Rainfall 0.00 in
Snow Depth Not available.
UV 0 out of 12
Pollen .10 out of 12
Air Quality Not available.
Flu Activity Not available.
METAR KPWK 211452Z 17008KT 6SM HZ OVC038 01/M03 A3021 RMK AO2 SLP237 T00061028 58003

More Conditions Fewer Conditions

Pressure 30.23 in
Visibility 6.0 miles
Clouds Overcast 3800 ft
Windchill 34 °F
Dew Point 25 °F
Humidity 69%
Rainfall 0.00 in
Snow Depth Not available.
UV 0 out of 12
Pollen .10 out of 12
Air Quality Not available.
Flu Activity Not available.
METAR KPWK 211452Z 17008KT 6SM HZ OVC038 01/M03 A3021 RMK AO2 SLP237 T00061028 58003

More Conditions Fewer Conditions

10-Day Weather Forecast

Almanac

Astronomy

Dec. 21, 2014 Rise Set
Actual Time
Civil Twilight
Nautical Twilight
Astronomical Twilight
Moon
Length of Visible Light
Length of Day
Tomorrow will be .
, % of the Moon is Illuminated

Today's Extremes

State Highs State Lows

Community

WunderPhotos

Upload Photos

1,779,412 photos uploaded!

WunderBlogs® & News

Nearby

Air Quality

  Air Quality AQ Index Pollutant
Not available.

Snow Depth

Station Depth Elevation

Earthquake Activity

City Distance Mag. Time & Date
Minimum magnitude displayed is 2.5.

Coastal Water Temperatures

Place Temperature

Nearby Weather Stations